Indianapolis, Indiana
Traffic Map
Current Weather Conditions
Indianapolis, Indiana
Clear
Clear

Feels Like: 4°
Wind Chill: Ceiling: Unl
Heat Index: Visibility: 10mi
Dew Point: -7° Wind: 10mph
Humidity: 36% Direction: 70° (ENE)
Pressure: 30.5in Gusts: 0mph
Raw Report DataKIND 201354Z 07009KT 10SM CLR 07/M07 A3050 RMK AO2 SLP333 T00721072
Traffic Incident Summary
Active as of:
Severity:
Category:
InformationThere was an issue retrieving the traffic information for this location. Please try a different location or try again shortly.
Advertisements